Time;durP1;ratioP1;P1;durP2;ratioP2;P2;SDS_P1;SDS_P2;PMS_P1;PMS_P2;Temp;Humidity;BMP_temperature;BMP_pressure;BME280_temperature;BME280_humidity;BME280_pressure;Samples;Min_cycle;Max_cycle;Signal;HPM_P1;HPM_P2
2021/07/25 00:00:42;;;;;;;118.63;66.85;;;17.60;99.90;;;;;;4931928;28;20199;-79
2021/07/25 00:03:10;;;;;;;111.45;62.58;;;17.50;99.90;;;;;;4962340;28;20051;-79
2021/07/25 00:05:40;;;;;;;120.82;66.60;;;17.50;99.90;;;;;;4948366;28;20097;-79
2021/07/25 00:08:11;;;;;;;129.05;66.90;;;17.50;99.90;;;;;;4948956;28;20296;-79
2021/07/25 00:10:46;;;;;;;119.07;65.60;;;17.50;99.90;;;;;;4932009;28;20054;-79
2021/07/25 00:13:19;;;;;;;121.50;65.57;;;17.50;99.90;;;;;;4964855;28;20086;-79
2021/07/25 00:15:46;;;;;;;124.70;66.22;;;17.50;99.90;;;;;;4947508;28;20059;-79
2021/07/25 00:18:18;;;;;;;116.72;66.10;;;17.40;99.90;;;;;;4961406;28;20681;-79
2021/07/25 00:20:45;;;;;;;125.07;68.15;;;17.30;99.90;;;;;;4943690;28;20102;-79
2021/07/25 00:23:17;;;;;;;130.77;69.32;;;17.30;99.90;;;;;;4950380;28;20566;-79
2021/07/25 00:25:46;;;;;;;121.88;67.13;;;17.10;99.90;;;;;;4935246;28;20107;-80
2021/07/25 00:28:17;;;;;;;121.80;65.57;;;17.10;99.90;;;;;;4945424;29;20047;-80
2021/07/25 00:30:45;;;;;;;123.13;64.70;;;16.90;99.90;;;;;;4955369;28;20046;-81
2021/07/25 00:33:12;;;;;;;127.68;64.05;;;16.90;99.90;;;;;;4948019;28;20058;-80
2021/07/25 00:35:39;;;;;;;144.02;66.78;;;16.90;99.90;;;;;;4947406;28;20130;-80
2021/07/25 00:38:06;;;;;;;123.07;65.15;;;16.90;99.90;;;;;;4915500;28;20062;-80
2021/07/25 00:40:43;;;;;;;132.65;65.50;;;16.80;99.90;;;;;;4959759;28;20055;-76
2021/07/25 00:43:24;;;;;;;123.97;63.80;;;16.90;99.90;;;;;;4947163;28;20065;-77
2021/07/25 00:45:52;;;;;;;134.90;69.25;;;16.80;99.90;;;;;;4931438;28;20089;-77
2021/07/25 00:48:19;;;;;;;142.10;70.75;;;16.80;99.90;;;;;;4960545;28;20505;-77
2021/07/25 00:50:46;;;;;;;133.77;68.40;;;16.70;99.90;;;;;;4930250;28;20520;-77
2021/07/25 00:53:13;;;;;;;136.80;69.88;;;16.80;99.90;;;;;;4929324;28;20482;-77
2021/07/25 00:55:41;;;;;;;138.02;68.78;;;16.60;99.90;;;;;;4938315;28;20058;-77
2021/07/25 00:58:08;;;;;;;137.13;65.35;;;16.50;99.90;;;;;;4947805;28;20145;-77
2021/07/25 01:00:35;;;;;;;134.88;64.00;;;16.40;99.90;;;;;;4942543;28;20074;-77
2021/07/25 01:03:28;;;;;;;122.78;62.65;;;16.30;99.90;;;;;;4943575;29;20043;-77
2021/07/25 01:06:01;;;;;;;138.57;63.75;;;16.30;99.90;;;;;;4896457;29;20070;-77
2021/07/25 01:08:42;;;;;;;114.45;60.45;;;16.40;99.90;;;;;;4928192;29;20518;-77
2021/07/25 01:11:12;;;;;;;128.95;63.30;;;16.30;99.90;;;;;;4932296;28;20129;-78
2021/07/25 01:13:46;;;;;;;127.88;63.63;;;16.20;99.90;;;;;;4959692;28;20124;-78
2021/07/25 01:16:13;;;;;;;143.93;68.60;;;16.30;99.90;;;;;;4928503;28;20078;-78
2021/07/25 01:18:48;;;;;;;136.20;64.43;;;16.20;99.90;;;;;;4946321;28;20066;-77
2021/07/25 01:21:17;;;;;;;130.98;63.30;;;16.30;99.90;;;;;;4945826;28;20046;-78
2021/07/25 01:23:46;;;;;;;140.63;66.18;;;16.30;99.90;;;;;;4927054;28;20047;-77
2021/07/25 01:26:16;;;;;;;137.85;65.75;;;16.20;99.90;;;;;;4952660;28;20527;-78
2021/07/25 01:28:49;;;;;;;116.10;63.17;;;16.10;99.90;;;;;;4912464;29;20479;-78
2021/07/25 01:31:27;;;;;;;125.53;62.20;;;16.10;99.90;;;;;;4927429;28;20059;-77
2021/07/25 01:33:55;;;;;;;108.85;61.05;;;16.10;99.90;;;;;;4930915;28;20090;-77
2021/07/25 01:36:22;;;;;;;114.57;61.55;;;16.20;99.90;;;;;;4962210;28;20054;-77
2021/07/25 01:38:52;;;;;;;107.65;57.40;;;16.20;99.90;;;;;;4946432;28;20082;-77
2021/07/25 01:41:19;;;;;;;114.70;60.08;;;16.20;99.90;;;;;;4946493;28;20633;-77
2021/07/25 01:43:49;;;;;;;115.85;59.03;;;16.10;99.90;;;;;;4954378;28;20137;-76
2021/07/25 01:46:16;;;;;;;116.00;59.80;;;16.20;99.90;;;;;;4946115;28;20087;-77
2021/07/25 01:48:43;;;;;;;115.60;56.55;;;16.20;99.90;;;;;;4929472;28;20074;-77
2021/07/25 01:51:15;;;;;;;115.07;59.13;;;16.20;99.90;;;;;;4946015;28;20106;-77
2021/07/25 01:53:42;;;;;;;112.90;56.75;;;16.10;99.90;;;;;;4947955;28;20345;-78
2021/07/25 01:56:09;;;;;;;102.80;57.17;;;16.20;99.90;;;;;;4917712;29;20043;-78
2021/07/25 01:58:36;;;;;;;122.68;60.72;;;16.10;99.90;;;;;;4943241;28;20074;-77
2021/07/25 02:01:03;;;;;;;115.30;58.05;;;16.10;99.90;;;;;;4930654;29;20573;-78
2021/07/25 02:03:31;;;;;;;123.15;61.40;;;16.00;99.90;;;;;;4937449;29;20073;-77
2021/07/25 02:05:58;;;;;;;130.55;62.70;;;16.10;99.90;;;;;;4914509;29;20480;-78
2021/07/25 02:08:25;;;;;;;119.32;59.42;;;16.00;99.90;;;;;;4949070;29;20066;-78
2021/07/25 02:10:52;;;;;;;126.28;60.70;;;15.90;99.90;;;;;;4954832;28;20199;-77
2021/07/25 02:13:21;;;;;;;116.90;58.78;;;15.80;99.90;;;;;;4949322;28;20499;-77
2021/07/25 02:15:49;;;;;;;116.40;57.10;;;15.70;99.90;;;;;;4950270;28;20698;-78
2021/07/25 02:18:17;;;;;;;130.52;58.03;;;15.60;99.90;;;;;;4946734;28;20464;-77
2021/07/25 02:20:44;;;;;;;102.13;56.03;;;15.50;99.90;;;;;;4946544;29;20415;-77
2021/07/25 02:23:11;;;;;;;120.65;59.35;;;15.40;99.90;;;;;;4956291;28;20433;-78
2021/07/25 02:25:38;;;;;;;108.60;57.80;;;15.50;99.90;;;;;;4954031;28;20066;-76
2021/07/25 02:28:09;;;;;;;114.07;58.15;;;15.40;99.90;;;;;;4930615;29;20043;-76
2021/07/25 02:30:36;;;;;;;112.25;56.20;;;15.40;99.90;;;;;;4945923;28;20059;-76
2021/07/25 02:33:04;;;;;;;119.72;58.28;;;15.30;99.90;;;;;;4929359;28;20077;-76
2021/07/25 02:35:32;;;;;;;116.85;55.47;;;15.20;99.90;;;;;;4952370;28;20246;-76
2021/07/25 02:37:59;;;;;;;104.20;53.47;;;15.30;99.90;;;;;;4913225;29;20054;-76
2021/07/25 02:40:26;;;;;;;117.75;54.83;;;15.30;99.90;;;;;;4929383;29;20401;-76
2021/07/25 02:42:53;;;;;;;115.45;55.22;;;15.20;99.90;;;;;;4914430;29;20040;-76
2021/07/25 02:45:20;;;;;;;112.80;53.60;;;15.30;99.90;;;;;;4939420;29;20055;-76
2021/07/25 02:47:47;;;;;;;126.97;59.22;;;15.20;99.90;;;;;;4927517;28;20039;-76
2021/07/25 02:50:14;;;;;;;116.70;54.17;;;15.10;99.90;;;;;;4957537;28;20079;-75
2021/07/25 02:52:41;;;;;;;106.22;52.83;;;15.10;99.90;;;;;;4949643;28;20050;-76
2021/07/25 02:55:08;;;;;;;106.15;53.25;;;15.00;99.90;;;;;;4959890;28;20489;-76
2021/07/25 02:57:35;;;;;;;105.93;52.20;;;14.90;99.90;;;;;;4945540;28;20626;-76
2021/07/25 03:00:03;;;;;;;103.32;51.85;;;15.00;99.90;;;;;;4937787;28;20051;-76
2021/07/25 03:02:30;;;;;;;113.68;53.50;;;15.00;99.90;;;;;;4947448;28;20090;-75
2021/07/25 03:04:57;;;;;;;105.45;52.13;;;15.00;99.90;;;;;;4943353;29;20424;-76
2021/07/25 03:07:24;;;;;;;110.57;53.08;;;14.90;99.90;;;;;;4928028;29;20051;-76
2021/07/25 03:09:51;;;;;;;92.20;47.97;;;14.90;99.90;;;;;;4913616;29;20106;-75
2021/07/25 03:12:18;;;;;;;106.40;48.30;;;14.90;99.90;;;;;;4944099;28;20420;-76
2021/07/25 03:14:46;;;;;;;95.03;48.67;;;14.90;99.90;;;;;;4942327;28;20039;-76
2021/07/25 03:17:12;;;;;;;125.15;54.80;;;14.80;99.90;;;;;;4963389;28;20536;-76
2021/07/25 03:19:39;;;;;;;107.63;52.25;;;14.70;99.90;;;;;;4964384;28;20085;-76
2021/07/25 03:22:09;;;;;;;104.25;50.90;;;14.80;99.90;;;;;;4931589;28;20542;-77
2021/07/25 03:24:36;;;;;;;103.97;50.65;;;14.70;99.90;;;;;;4916754;28;20058;-76
2021/07/25 03:27:04;;;;;;;116.43;53.42;;;14.60;99.90;;;;;;4946933;28;20097;-77
2021/07/25 03:29:31;;;;;;;111.03;53.58;;;14.60;99.90;;;;;;4939446;28;20047;-76
2021/07/25 03:31:58;;;;;;;111.25;50.45;;;14.50;99.90;;;;;;4943122;28;20049;-76
2021/07/25 03:34:29;;;;;;;96.15;47.28;;;14.40;99.90;;;;;;4944519;29;20098;-77
2021/07/25 03:36:56;;;;;;;82.50;41.63;;;14.40;99.90;;;;;;4963294;28;20069;-76
2021/07/25 03:39:25;;;;;;;78.75;41.53;;;14.20;99.90;;;;;;4947255;28;20173;-77
2021/07/25 03:41:52;;;;;;;88.40;44.30;;;14.20;99.90;;;;;;4931219;28;20046;-77
2021/07/25 03:44:19;;;;;;;85.13;44.35;;;14.30;99.90;;;;;;4948162;28;20401;-76
2021/07/25 03:46:46;;;;;;;76.60;42.92;;;14.30;99.90;;;;;;4930508;28;20509;-77
2021/07/25 03:49:13;;;;;;;86.18;46.53;;;14.30;99.90;;;;;;4947087;28;20419;-77
2021/07/25 03:51:40;;;;;;;104.82;48.72;;;14.20;99.90;;;;;;4946906;28;20050;-76
2021/07/25 03:54:07;;;;;;;103.97;48.30;;;14.10;99.90;;;;;;4964485;28;20062;-75
2021/07/25 03:56:35;;;;;;;99.30;47.20;;;14.10;99.90;;;;;;4958540;28;20176;-75
2021/07/25 03:59:02;;;;;;;96.88;47.38;;;14.10;99.90;;;;;;4908098;28;20111;-75
2021/07/25 04:01:30;;;;;;;90.90;44.45;;;14.10;99.90;;;;;;4956063;28;20066;-76
2021/07/25 04:03:57;;;;;;;93.63;44.03;;;14.10;99.90;;;;;;4947727;28;20389;-76
2021/07/25 04:06:24;;;;;;;70.15;39.55;;;14.10;99.90;;;;;;4965259;28;20062;-75
2021/07/25 04:08:51;;;;;;;74.78;39.55;;;14.10;99.90;;;;;;4965167;28;20606;-76
2021/07/25 04:11:20;;;;;;;70.50;37.45;;;14.00;99.90;;;;;;4946296;28;20170;-75
2021/07/25 04:13:48;;;;;;;83.05;43.40;;;14.20;99.90;;;;;;4931856;28;20146;-76
2021/07/25 04:16:16;;;;;;;80.13;42.72;;;14.30;99.90;;;;;;4914462;28;20471;-76
2021/07/25 04:18:43;;;;;;;84.72;43.25;;;14.20;99.90;;;;;;4924627;28;20224;-76
2021/07/25 04:21:13;;;;;;;86.13;45.53;;;14.10;99.90;;;;;;4930322;28;20507;-77
2021/07/25 04:23:40;;;;;;;100.32;47.70;;;14.20;99.90;;;;;;4928144;29;20083;-76
2021/07/25 04:26:09;;;;;;;84.03;45.05;;;14.30;99.90;;;;;;4926676;29;20062;-77
2021/07/25 04:28:36;;;;;;;95.97;46.63;;;14.40;99.90;;;;;;4932450;29;20142;-76
2021/07/25 04:31:03;;;;;;;94.05;46.45;;;14.50;99.90;;;;;;4937379;29;20047;-77
2021/07/25 04:33:33;;;;;;;90.80;44.20;;;14.60;99.90;;;;;;4912078;29;20070;-77
2021/07/25 04:36:00;;;;;;;97.07;47.95;;;14.50;99.90;;;;;;4943739;29;20424;-76
2021/07/25 04:38:27;;;;;;;96.95;46.75;;;14.50;99.90;;;;;;4921332;28;20043;-76
2021/07/25 04:41:01;;;;;;;77.60;43.67;;;14.70;99.90;;;;;;4927246;28;20300;-76
2021/07/25 04:43:30;;;;;;;93.45;47.60;;;14.70;99.90;;;;;;4927256;29;20150;-76
2021/07/25 04:46:23;;;;;;;92.30;48.10;;;14.80;99.90;;;;;;4942740;29;20078;-76
2021/07/25 04:49:08;;;;;;;89.97;47.13;;;14.80;99.90;;;;;;4910882;28;20527;-77
2021/07/25 04:51:37;;;;;;;90.75;46.58;;;14.70;99.90;;;;;;4943532;29;20134;-75
2021/07/25 04:54:10;;;;;;;84.10;44.47;;;14.80;99.90;;;;;;4942360;29;20563;-77
2021/07/25 04:57:01;;;;;;;85.03;45.28;;;15.00;99.90;;;;;;4926659;29;20086;-75
2021/07/25 04:59:34;;;;;;;74.78;42.28;;;15.10;99.90;;;;;;4936952;28;20133;-76
2021/07/25 05:02:04;;;;;;;79.60;40.63;;;15.00;99.90;;;;;;4946472;28;20597;-77
2021/07/25 05:04:32;;;;;;;72.38;38.90;;;15.10;99.90;;;;;;4926749;29;20445;-77
2021/07/25 05:07:00;;;;;;;72.75;40.53;;;15.20;99.90;;;;;;4911988;28;20078;-76
2021/07/25 05:09:27;;;;;;;73.40;41.25;;;15.30;99.90;;;;;;4924710;28;20081;-76
2021/07/25 05:12:01;;;;;;;72.38;42.67;;;15.40;99.90;;;;;;4944123;28;20051;-76
2021/07/25 05:15:04;;;;;;;70.35;41.97;;;15.50;99.90;;;;;;4946723;28;20050;-76
2021/07/25 05:18:07;;;;;;;61.17;38.13;;;15.80;99.90;;;;;;4934295;28;20075;-76
2021/07/25 05:20:52;;;;;;;54.03;34.75;;;16.20;99.90;;;;;;4908987;28;20467;-77
2021/07/25 05:23:19;;;;;;;;;;;16.40;99.90;;;;;;4944360;28;20113;-76
2021/07/25 05:25:52;;;;;;;41.88;29.60;;;16.60;99.90;;;;;;4932661;28;19929;-76
2021/07/25 05:28:20;;;;;;;35.85;24.95;;;17.00;99.90;;;;;;4948156;28;20051;-77
2021/07/25 05:30:51;;;;;;;35.00;25.65;;;17.20;99.90;;;;;;4935032;28;20039;-76
2021/07/25 05:33:20;;;;;;;36.15;25.70;;;17.50;99.90;;;;;;4945597;28;20054;-76
2021/07/25 05:35:47;;;;;;;33.20;23.65;;;17.70;99.90;;;;;;4948589;28;20074;-76
2021/07/25 05:38:15;;;;;;;39.97;27.27;;;17.70;99.90;;;;;;4949600;28;20055;-76
2021/07/25 05:40:42;;;;;;;37.88;26.05;;;17.70;99.90;;;;;;4953538;28;20070;-76
2021/07/25 05:43:10;;;;;;;35.30;24.73;;;17.80;99.90;;;;;;4967767;28;20583;-76
2021/07/25 05:45:37;;;;;;;33.70;24.90;;;17.90;99.90;;;;;;4949187;28;20047;-77
2021/07/25 05:48:04;;;;;;;35.17;24.08;;;17.90;99.90;;;;;;4961680;28;20157;-76
2021/07/25 05:50:31;;;;;;;31.70;23.98;;;17.90;99.90;;;;;;4958470;28;20059;-76
2021/07/25 05:52:59;;;;;;;28.23;22.65;;;18.00;99.90;;;;;;4963524;28;20089;-76
2021/07/25 05:55:31;;;;;;;27.20;21.63;;;18.00;99.90;;;;;;4964905;28;20471;-76
2021/07/25 05:57:59;;;;;;;27.13;21.30;;;18.00;99.90;;;;;;4967618;28;20158;-76
2021/07/25 06:00:27;;;;;;;26.90;21.50;;;18.30;99.90;;;;;;4940249;28;20435;-76
2021/07/25 06:03:00;;;;;;;31.73;21.88;;;18.50;99.90;;;;;;4948676;28;20059;-77
2021/07/25 06:05:28;;;;;;;28.73;22.00;;;18.60;99.90;;;;;;4949049;28;20428;-76
2021/07/25 06:07:57;;;;;;;28.92;21.42;;;18.90;99.90;;;;;;4946577;28;20070;-77
2021/07/25 06:10:27;;;;;;;30.30;22.27;;;19.10;99.90;;;;;;4963119;28;20538;-77
2021/07/25 06:12:58;;;;;;;27.63;20.23;;;19.50;99.90;;;;;;4966647;28;20347;-77
2021/07/25 06:15:27;;;;;;;28.10;18.50;;;19.90;99.90;;;;;;4952862;28;20106;-76
2021/07/25 06:17:55;;;;;;;22.38;18.38;;;20.10;99.90;;;;;;4960959;28;20459;-77
2021/07/25 06:20:23;;;;;;;23.48;17.65;;;20.40;99.90;;;;;;4945066;29;20098;-77
2021/07/25 06:22:53;;;;;;;19.75;17.42;;;20.60;99.90;;;;;;4932282;28;20163;-77
2021/07/25 06:25:22;;;;;;;22.10;18.38;;;20.60;99.90;;;;;;4963422;28;20051;-77
2021/07/25 06:27:51;;;;;;;24.65;17.20;;;20.50;99.90;;;;;;4946576;28;20511;-77
2021/07/25 06:30:19;;;;;;;21.90;17.63;;;20.60;99.90;;;;;;4959572;28;20076;-77
2021/07/25 06:33:06;;;;;;;23.52;16.40;;;20.80;99.90;;;;;;4934361;28;20070;-77
2021/07/25 06:35:38;;;;;;;24.95;18.40;;;20.80;99.90;;;;;;4955371;28;20067;-77
2021/07/25 06:38:15;;;;;;;24.67;18.17;;;21.10;99.90;;;;;;4923436;28;20078;-78
2021/07/25 06:40:51;;;;;;;21.30;17.63;;;21.00;99.90;;;;;;4931737;28;20043;-77
2021/07/25 06:43:19;;;;;;;26.98;19.25;;;21.00;99.90;;;;;;4958899;28;20109;-77
2021/07/25 06:45:53;;;;;;;24.65;17.77;;;20.70;99.90;;;;;;4945350;28;20459;-77
2021/07/25 06:48:21;;;;;;;22.70;16.02;;;20.80;99.90;;;;;;4959794;28;20086;-76
2021/07/25 06:50:51;;;;;;;21.75;17.88;;;21.20;99.90;;;;;;4930082;28;20146;-77
2021/07/25 06:53:19;;;;;;;23.13;17.75;;;21.60;99.90;;;;;;4963435;28;20047;-77
2021/07/25 06:55:47;;;;;;;20.75;17.75;;;22.10;99.90;;;;;;4948053;28;20073;-77
2021/07/25 06:58:14;;;;;;;22.42;17.80;;;22.00;99.90;;;;;;4936460;28;20051;-77
2021/07/25 07:00:41;;;;;;;18.83;16.67;;;21.80;99.90;;;;;;4938847;28;20068;-77
2021/07/25 07:03:08;;;;;;;20.75;17.55;;;21.70;99.90;;;;;;4956615;28;20043;-77
2021/07/25 07:05:36;;;;;;;22.60;17.38;;;21.60;99.90;;;;;;4955987;28;20071;-77
2021/07/25 07:08:05;;;;;;;21.85;17.58;;;21.70;99.90;;;;;;4948679;28;20157;-77
2021/07/25 07:10:37;;;;;;;27.40;18.40;;;21.70;99.90;;;;;;4947962;28;20088;-77
2021/07/25 07:13:09;;;;;;;22.48;16.98;;;21.80;99.90;;;;;;4947718;28;20062;-77
2021/07/25 07:15:41;;;;;;;24.63;17.95;;;22.00;99.90;;;;;;4939042;28;20051;-77
2021/07/25 07:18:09;;;;;;;21.95;16.83;;;21.90;99.90;;;;;;4959048;28;20554;-77
2021/07/25 07:20:36;;;;;;;21.52;17.80;;;21.90;99.90;;;;;;4959907;28;20480;-77
2021/07/25 07:23:05;;;;;;;18.52;16.52;;;21.80;99.90;;;;;;4959663;28;20039;-77
2021/07/25 07:25:47;;;;;;;21.65;17.80;;;21.80;99.90;;;;;;4945674;28;20043;-77
2021/07/25 07:28:15;;;;;;;20.27;17.33;;;21.70;99.90;;;;;;4936551;28;20054;-77
2021/07/25 07:30:43;;;;;;;22.63;16.60;;;21.80;99.90;;;;;;4941219;28;20053;-77
2021/07/25 07:33:12;;;;;;;20.88;17.27;;;22.00;99.90;;;;;;4928324;28;20508;-77
2021/07/25 07:35:40;;;;;;;21.83;16.30;;;22.40;99.90;;;;;;4911584;29;20142;-77
2021/07/25 07:38:08;;;;;;;24.40;16.83;;;22.20;99.90;;;;;;4927489;29;20043;-78
2021/07/25 07:40:37;;;;;;;21.45;15.70;;;21.70;99.90;;;;;;4946831;28;20067;-78
2021/07/25 07:43:05;;;;;;;20.33;16.48;;;21.70;99.90;;;;;;4943273;28;20053;-77
2021/07/25 07:45:33;;;;;;;24.98;16.38;;;21.30;99.90;;;;;;4927946;29;20046;-78
2021/07/25 07:48:00;;;;;;;21.27;14.68;;;21.20;99.90;;;;;;4942847;28;20039;-77
2021/07/25 07:50:27;;;;;;;19.27;14.60;;;21.40;99.90;;;;;;4945993;28;20146;-77
2021/07/25 07:52:54;;;;;;;18.42;14.55;;;21.60;99.90;;;;;;4944654;28;20051;-77
2021/07/25 07:55:21;;;;;;;18.77;15.68;;;21.40;99.90;;;;;;4928239;28;20047;-78
2021/07/25 07:57:48;;;;;;;18.30;15.70;;;21.90;99.90;;;;;;4965431;28;20046;-83
2021/07/25 08:00:15;;;;;;;18.60;16.27;;;22.40;99.90;;;;;;4936820;28;20043;-82
2021/07/25 08:02:43;;;;;;;17.98;15.13;;;23.20;99.90;;;;;;4939323;28;20768;-82
2021/07/25 08:05:11;;;;;;;18.23;16.00;;;23.20;99.90;;;;;;4912340;28;20144;-82
2021/07/25 08:07:38;;;;;;;17.60;14.38;;;23.40;99.90;;;;;;4948216;28;20047;-82
2021/07/25 08:10:07;;;;;;;16.17;14.48;;;23.50;99.90;;;;;;4932690;28;20074;-82
2021/07/25 08:12:34;;;;;;;18.30;14.68;;;23.70;99.90;;;;;;4931825;28;20424;-82
2021/07/25 08:15:01;;;;;;;19.50;16.15;;;23.70;99.90;;;;;;4958557;28;20054;-82
2021/07/25 08:17:28;;;;;;;16.83;15.20;;;23.60;99.90;;;;;;4932520;28;20116;-82
2021/07/25 08:19:55;;;;;;;16.90;14.82;;;23.70;99.90;;;;;;4943690;29;20062;-81
2021/07/25 08:22:23;;;;;;;17.33;15.60;;;23.60;99.90;;;;;;4912514;29;20637;-82
2021/07/25 08:24:50;;;;;;;17.80;16.08;;;23.50;99.90;;;;;;4931257;28;20055;-82
2021/07/25 08:27:17;;;;;;;16.02;14.32;;;23.70;99.90;;;;;;4963714;28;20607;-82
2021/07/25 08:29:44;;;;;;;15.75;14.15;;;24.10;99.90;;;;;;4928568;28;20288;-82
2021/07/25 08:32:12;;;;;;;15.55;13.98;;;24.50;99.90;;;;;;4946598;28;20416;-82
2021/07/25 08:34:40;;;;;;;16.30;14.90;;;24.30;99.90;;;;;;4942134;28;20309;-82
2021/07/25 08:37:07;;;;;;;16.50;14.80;;;24.10;99.90;;;;;;4963878;28;20167;-81
2021/07/25 08:39:34;;;;;;;15.52;14.23;;;24.40;99.90;;;;;;4932571;28;20121;-81
2021/07/25 08:42:11;;;;;;;16.52;14.80;;;24.80;99.90;;;;;;4945961;28;20129;-81
2021/07/25 08:44:48;;;;;;;16.92;14.88;;;25.00;99.90;;;;;;4963664;28;20046;-80
2021/07/25 08:47:23;;;;;;;18.23;16.48;;;25.00;99.90;;;;;;4947186;28;20051;-82
2021/07/25 08:49:59;;;;;;;15.93;14.40;;;25.30;99.90;;;;;;4936492;29;20465;-82
2021/07/25 08:52:31;;;;;;;16.27;14.70;;;24.80;99.90;;;;;;4927719;29;20636;-82
2021/07/25 08:55:01;;;;;;;17.48;15.77;;;24.60;99.90;;;;;;4934650;28;20515;-81
2021/07/25 08:57:31;;;;;;;18.08;15.65;;;24.50;99.90;;;;;;4949198;28;20629;-81
2021/07/25 08:59:59;;;;;;;17.17;15.68;;;24.40;99.90;;;;;;4921746;28;20035;-83
2021/07/25 09:02:28;;;;;;;17.60;15.80;;;24.40;99.90;;;;;;4930408;29;20058;-82
2021/07/25 09:04:57;;;;;;;15.77;14.32;;;24.50;99.90;;;;;;4902852;28;20391;-82
2021/07/25 09:07:26;;;;;;;17.23;15.65;;;25.00;99.90;;;;;;4950978;28;20077;-82
2021/07/25 09:09:55;;;;;;;16.20;14.75;;;25.10;99.90;;;;;;4938993;28;20224;-82
2021/07/25 09:12:23;;;;;;;16.73;15.23;;;25.80;99.90;;;;;;4952511;28;20146;-83
2021/07/25 09:14:56;;;;;;;17.55;15.98;;;26.20;99.90;;;;;;4952807;28;20455;-82
2021/07/25 09:17:24;;;;;;;16.80;15.40;;;26.80;99.90;;;;;;4927491;28;20136;-82
2021/07/25 09:20:12;;;;;;;16.38;15.10;;;26.70;99.90;;;;;;4925352;29;20043;-82
2021/07/25 09:22:54;;;;;;;16.45;15.07;;;26.40;99.90;;;;;;4934807;29;20086;-82
2021/07/25 09:25:21;;;;;;;17.25;15.75;;;25.60;99.90;;;;;;4935554;28;20086;-81
2021/07/25 09:27:54;;;;;;;17.15;15.65;;;25.60;99.90;;;;;;4951911;28;20058;-81
2021/07/25 09:30:22;;;;;;;18.33;16.65;;;25.80;99.90;;;;;;4959102;28;20061;-82
2021/07/25 09:32:49;;;;;;;17.10;15.60;;;25.70;99.90;;;;;;4936986;28;20543;-81
2021/07/25 09:35:26;;;;;;;15.63;14.13;;;25.20;99.90;;;;;;4933176;29;20098;-80
2021/07/25 09:38:08;;;;;;;16.35;14.73;;;24.80;99.90;;;;;;4949493;28;20103;-81
2021/07/25 09:40:37;;;;;;;16.40;14.98;;;24.80;99.90;;;;;;4949683;28;20536;-81
2021/07/25 09:43:11;;;;;;;15.65;14.35;;;24.80;99.90;;;;;;4917771;29;20479;-81
2021/07/25 09:45:59;;;;;;;15.05;13.85;;;24.70;99.90;;;;;;4949124;28;20543;-81
2021/07/25 09:48:28;;;;;;;14.90;13.63;;;24.70;99.90;;;;;;4969425;28;20691;-82
2021/07/25 09:51:00;;;;;;;13.70;12.57;;;24.70;99.90;;;;;;4948533;28;20051;-81
2021/07/25 09:53:45;;;;;;;13.90;12.85;;;24.70;99.90;;;;;;4919111;29;20051;-81
2021/07/25 09:56:13;;;;;;;13.88;12.57;;;24.50;99.90;;;;;;4964353;28;20161;-79
2021/07/25 09:58:41;;;;;;;14.90;13.50;;;24.40;99.90;;;;;;4927615;28;20047;-78
2021/07/25 10:01:08;;;;;;;14.30;13.20;;;24.70;99.90;;;;;;4924937;29;20490;-77
2021/07/25 10:03:35;;;;;;;14.57;13.48;;;24.70;99.90;;;;;;4949077;28;20083;-78
2021/07/25 10:06:22;;;;;;;13.15;12.15;;;24.80;99.90;;;;;;4930403;28;20528;-78
2021/07/25 10:09:16;;;;;;;13.70;12.57;;;25.00;99.90;;;;;;4948143;28;20047;-76
2021/07/25 10:11:49;;;;;;;11.43;10.52;;;25.10;99.90;;;;;;4947770;28;20075;-78
2021/07/25 10:14:19;;;;;;;11.55;10.65;;;24.90;99.90;;;;;;4959346;28;20050;-78
2021/07/25 10:16:55;;;;;;;12.25;11.27;;;24.70;99.90;;;;;;4945631;28;20074;-77
2021/07/25 10:19:37;;;;;;;11.60;10.70;;;24.60;99.90;;;;;;4947768;28;20129;-77
2021/07/25 10:22:09;;;;;;;14.25;12.95;;;24.50;99.90;;;;;;4930449;28;20138;-78
2021/07/25 10:24:39;;;;;;;11.88;10.68;;;24.40;99.90;;;;;;4947698;29;20047;-77
2021/07/25 10:27:07;;;;;;;11.82;10.82;;;24.40;99.90;;;;;;4946449;28;20059;-77
2021/07/25 10:29:38;;;;;;;11.38;10.27;;;24.40;99.90;;;;;;4951584;28;20117;-78
2021/07/25 10:32:07;;;;;;;11.75;10.85;;;24.40;99.90;;;;;;4955376;28;20077;-78
2021/07/25 10:34:37;;;;;;;10.65;9.65;;;24.20;99.90;;;;;;4934865;29;20098;-79
2021/07/25 10:37:04;;;;;;;11.50;10.40;;;24.20;99.90;;;;;;4958393;28;20472;-78
2021/07/25 10:39:34;;;;;;;11.30;10.43;;;24.20;99.90;;;;;;4950007;28;20542;-78
2021/07/25 10:42:03;;;;;;;11.70;10.77;;;24.20;99.90;;;;;;4965240;28;20150;-78
2021/07/25 10:44:30;;;;;;;12.27;11.18;;;24.00;99.90;;;;;;4917752;28;20054;-76
2021/07/25 10:47:23;;;;;;;13.43;10.40;;;23.80;99.90;;;;;;4948946;28;20040;-80
2021/07/25 10:50:07;;;;;;;10.63;9.82;;;23.60;99.90;;;;;;4914225;29;20051;-79
2021/07/25 10:52:49;;;;;;;11.90;10.32;;;23.30;99.90;;;;;;4928603;29;20090;-80
2021/07/25 10:55:34;;;;;;;11.63;10.70;;;23.10;99.90;;;;;;4948508;29;20484;-79
2021/07/25 10:58:03;;;;;;;10.98;9.95;;;23.00;99.90;;;;;;4937566;28;20693;-76
2021/07/25 11:00:45;;;;;;;10.55;9.55;;;22.80;99.90;;;;;;4927983;28;20074;-76
2021/07/25 11:03:30;;;;;;;9.27;8.48;;;22.30;99.90;;;;;;4967266;28;20093;-76
2021/07/25 11:06:05;;;;;;;8.85;7.95;;;21.80;99.90;;;;;;4965046;28;20059;-79
2021/07/25 11:08:32;;;;;;;;;;;21.60;99.90;;;;;;4968009;28;20120;-77
2021/07/25 11:11:00;;;;;;;9.60;7.07;;;21.30;99.90;;;;;;4949533;28;19922;-77
2021/07/25 11:13:42;;;;;;;7.90;5.65;;;21.10;99.90;;;;;;4967881;28;20054;-79
2021/07/25 11:16:30;;;;;;;15.70;9.93;;;21.00;99.90;;;;;;4932116;28;20502;-79
2021/07/25 11:18:57;;;;;;;12.35;8.93;;;20.90;99.90;;;;;;4950243;28;20373;-80
2021/07/25 11:21:33;;;;;;;16.77;9.43;;;20.70;99.90;;;;;;4959914;28;20078;-78
2021/07/25 11:24:22;;;;;;;19.98;8.93;;;20.30;99.90;;;;;;4947038;28;20134;-81
2021/07/25 11:26:53;;;;;;;12.27;7.80;;;20.00;99.90;;;;;;4963732;28;20047;-78
2021/07/25 11:29:23;;;;;;;10.05;7.35;;;19.50;99.90;;;;;;4963362;28;20074;-81
2021/07/25 11:31:51;;;;;;;11.15;8.00;;;19.00;99.90;;;;;;4968245;28;20047;-79
2021/07/25 11:34:27;;;;;;;13.52;8.00;;;18.80;99.90;;;;;;4951501;28;20267;-81
2021/07/25 11:36:56;;;;;;;13.90;8.73;;;18.60;99.90;;;;;;4933724;28;20093;-79
2021/07/25 11:39:24;;;;;;;17.23;9.77;;;18.40;99.90;;;;;;4935050;28;20051;-85
2021/07/25 11:41:51;;;;;;;19.20;10.60;;;18.30;99.90;;;;;;4967282;28;20511;-77
2021/07/25 11:44:27;;;;;;;13.68;8.98;;;18.30;99.90;;;;;;4934460;28;20516;-82
2021/07/25 11:46:55;;;;;;;16.55;10.32;;;18.20;99.90;;;;;;4967210;28;20043;-78
2021/07/25 11:49:48;;;;;;;11.70;8.40;;;18.00;99.90;;;;;;4963091;28;20660;-84
2021/07/25 11:52:16;;;;;;;11.82;8.45;;;17.90;99.90;;;;;;4946347;28;20424;-78
2021/07/25 11:54:43;;;;;;;10.88;8.43;;;17.80;99.90;;;;;;4951262;28;20063;-78
2021/07/25 11:57:12;;;;;;;13.07;7.35;;;17.80;99.90;;;;;;4949921;28;20042;-77
2021/07/25 11:59:50;;;;;;;9.85;6.65;;;17.80;99.90;;;;;;4946386;28;20058;-77
2021/07/25 12:02:23;;;;;;;10.27;5.63;;;17.80;99.90;;;;;;4962237;28;20058;-78
2021/07/25 12:04:52;;;;;;;8.70;6.18;;;17.80;99.90;;;;;;4933374;28;20047;-77
2021/07/25 12:07:20;;;;;;;10.43;6.45;;;18.00;99.90;;;;;;4939335;28;20057;-77
2021/07/25 12:09:56;;;;;;;9.63;5.93;;;18.20;99.90;;;;;;4966399;28;20059;-77
2021/07/25 12:12:32;;;;;;;7.65;6.32;;;18.10;99.90;;;;;;4914388;29;20043;-78
2021/07/25 12:15:00;;;;;;;11.73;6.00;;;18.10;99.90;;;;;;4943296;28;20806;-77
2021/07/25 12:17:50;;;;;;;8.60;5.15;;;18.10;99.90;;;;;;4951968;28;20051;-78
2021/07/25 12:20:17;;;;;;;7.80;5.68;;;18.10;99.90;;;;;;4956501;28;20113;-78
2021/07/25 12:22:56;;;;;;;6.60;4.50;;;18.20;99.90;;;;;;4942399;28;20058;-78
2021/07/25 12:25:28;;;;;;;5.43;3.75;;;18.10;99.90;;;;;;4947730;28;20211;-77
2021/07/25 12:28:07;;;;;;;6.97;4.15;;;18.20;99.90;;;;;;4917179;28;20146;-78
2021/07/25 12:30:40;;;;;;;5.75;4.72;;;18.10;99.90;;;;;;4948225;28;20050;-78
2021/07/25 12:33:07;;;;;;;6.95;4.32;;;18.20;99.90;;;;;;4945704;28;20073;-78
2021/07/25 12:35:35;;;;;;;5.40;4.43;;;18.40;99.90;;;;;;4913667;29;20142;-78
2021/07/25 12:38:12;;;;;;;8.00;5.63;;;18.60;99.90;;;;;;4930640;29;20131;-78
2021/07/25 12:40:53;;;;;;;8.23;5.50;;;18.90;99.90;;;;;;4931561;29;20122;-78
2021/07/25 12:43:24;;;;;;;8.07;4.13;;;18.90;99.90;;;;;;4940084;28;20102;-78